createdAt,value
2023-03-02T00:02:17.586Z,85.30
2023-03-02T00:04:51.057Z,85.28
2023-03-02T00:07:20.819Z,85.43
2023-03-02T00:09:48.546Z,85.41
2023-03-02T00:12:16.342Z,85.37
2023-03-02T00:14:44.204Z,85.35
2023-03-02T00:17:12.267Z,85.43
2023-03-02T00:19:40.071Z,85.52
2023-03-02T00:22:10.103Z,85.63
2023-03-02T00:24:38.733Z,85.67
2023-03-02T00:27:06.521Z,85.62
2023-03-02T00:29:34.465Z,85.55
2023-03-02T00:32:03.850Z,85.59
2023-03-02T00:34:34.528Z,85.64
2023-03-02T00:37:02.286Z,85.73
2023-03-02T00:39:30.363Z,85.66
2023-03-02T00:41:58.097Z,85.67
2023-03-02T00:44:25.907Z,85.57
2023-03-02T00:46:53.792Z,85.73
2023-03-02T00:49:21.651Z,85.64
2023-03-02T00:51:49.379Z,85.87
2023-03-02T00:54:17.247Z,85.80
2023-03-02T00:56:45.016Z,85.71
2023-03-02T00:59:28.557Z,85.76
2023-03-02T01:02:02.567Z,85.83
2023-03-02T01:04:33.975Z,85.83
2023-03-02T01:07:03.689Z,85.83
2023-03-02T01:09:32.025Z,85.79
2023-03-02T01:11:59.725Z,85.81
2023-03-02T01:14:27.467Z,85.75
2023-03-02T01:16:55.221Z,85.78
2023-03-02T01:19:23.129Z,85.75
2023-03-02T01:21:50.951Z,85.59
2023-03-02T01:24:18.670Z,85.46
2023-03-02T01:26:46.430Z,85.52
2023-03-02T01:29:14.235Z,85.67
2023-03-02T01:31:42.221Z,85.82
2023-03-02T01:34:10.700Z,85.87
2023-03-02T01:36:38.940Z,85.87
2023-03-02T01:39:06.683Z,85.82
2023-03-02T01:41:34.624Z,85.68
2023-03-02T01:44:02.694Z,85.83
2023-03-02T01:46:35.163Z,85.92
2023-03-02T01:49:07.798Z,85.96
2023-03-02T01:51:52.514Z,85.89
2023-03-02T01:54:23.102Z,85.87
2023-03-02T01:56:58.119Z,85.79
2023-03-02T01:59:27.595Z,85.78
2023-03-02T02:01:58.619Z,85.74
2023-03-02T02:04:28.358Z,85.64
2023-03-02T02:07:03.981Z,85.69
2023-03-02T02:09:38.957Z,85.64
2023-03-02T02:12:12.508Z,85.54
2023-03-02T02:14:40.847Z,85.62
2023-03-02T02:17:09.168Z,85.61
2023-03-02T02:19:54.341Z,85.60
2023-03-02T02:22:45.393Z,85.84
2023-03-02T02:25:29.104Z,85.71
2023-03-02T02:27:57.137Z,85.81
2023-03-02T02:30:26.785Z,85.81
2023-03-02T02:32:55.378Z,85.73
2023-03-02T02:35:25.031Z,85.79
2023-03-02T02:38:10.464Z,85.87
2023-03-02T02:40:41.402Z,86.20
2023-03-02T02:43:14.105Z,86.19
2023-03-02T02:45:42.389Z,86.00
2023-03-02T02:48:19.264Z,86.08
2023-03-02T02:50:47.431Z,85.81
2023-03-02T02:53:20.592Z,85.88
2023-03-02T02:55:50.201Z,85.74
2023-03-02T02:58:20.736Z,85.66
2023-03-02T03:00:48.569Z,85.73
2023-03-02T03:03:29.089Z,85.74
2023-03-02T03:05:58.684Z,85.61
2023-03-02T03:08:42.489Z,85.45
2023-03-02T03:11:13.260Z,85.52
2023-03-02T03:13:43.525Z,85.60
2023-03-02T03:16:13.935Z,85.70
2023-03-02T03:18:46.920Z,85.54
2023-03-02T03:21:18.239Z,85.66
2023-03-02T03:23:45.974Z,85.65
2023-03-02T03:26:13.803Z,85.65
2023-03-02T03:28:41.526Z,85.47
2023-03-02T03:31:09.557Z,85.38
2023-03-02T03:33:37.559Z,85.34
2023-03-02T03:36:05.857Z,85.23
2023-03-02T03:38:33.663Z,85.59
2023-03-02T03:41:01.699Z,85.46
2023-03-02T03:43:29.923Z,85.45
2023-03-02T03:45:57.949Z,85.53
2023-03-02T03:48:26.339Z,85.60
2023-03-02T03:50:54.852Z,85.56
2023-03-02T03:53:23.165Z,85.58
2023-03-02T03:55:50.914Z,85.65
2023-03-02T03:58:19.378Z,85.65
2023-03-02T04:00:47.610Z,85.61
2023-03-02T04:03:16.088Z,85.54
2023-03-02T04:05:43.870Z,85.47
2023-03-02T04:08:11.790Z,85.48
2023-03-02T04:10:40.328Z,85.55
2023-03-02T04:13:08.515Z,85.34
2023-03-02T04:15:36.780Z,85.53
2023-03-02T04:18:04.554Z,85.50
2023-03-02T04:20:33.123Z,85.34
2023-03-02T04:23:01.196Z,85.04
2023-03-02T04:25:29.868Z,84.85
2023-03-02T04:28:03.176Z,84.52
2023-03-02T04:30:35.954Z,84.33
2023-03-02T04:33:04.249Z,84.21
2023-03-02T04:35:33.237Z,84.35
2023-03-02T04:38:02.033Z,84.45
2023-03-02T04:40:30.039Z,84.42
2023-03-02T04:42:57.794Z,84.64
2023-03-02T04:45:25.469Z,84.65
2023-03-02T04:47:53.296Z,84.10
2023-03-02T04:50:21.162Z,84.19
2023-03-02T04:52:50.140Z,84.27
2023-03-02T04:55:19.176Z,84.31
2023-03-02T04:57:46.934Z,84.46
2023-03-02T05:00:15.900Z,84.43
2023-03-02T05:02:43.713Z,84.39
2023-03-02T05:05:15.669Z,84.38
2023-03-02T05:07:44.629Z,84.49
2023-03-02T05:10:13.589Z,84.48
2023-03-02T05:12:57.644Z,84.58
2023-03-02T05:15:26.909Z,84.61
2023-03-02T05:17:55.446Z,84.47
2023-03-02T05:20:31.568Z,84.51
2023-03-02T05:23:01.021Z,84.57
2023-03-02T05:25:30.045Z,84.48
2023-03-02T05:27:58.219Z,84.46
2023-03-02T05:30:26.424Z,84.39
2023-03-02T05:32:54.746Z,84.41
2023-03-02T05:35:23.355Z,84.35
2023-03-02T05:37:51.378Z,84.24
2023-03-02T05:40:20.093Z,84.21
2023-03-02T05:42:48.692Z,84.18
2023-03-02T05:45:21.986Z,84.15
2023-03-02T05:47:49.937Z,84.22
2023-03-02T05:50:17.915Z,84.26
2023-03-02T05:52:46.347Z,84.18
2023-03-02T05:55:14.890Z,83.92
2023-03-02T05:57:42.729Z,83.95
2023-03-02T06:00:11.350Z,84.01
2023-03-02T06:02:42.682Z,84.04
2023-03-02T06:05:18.239Z,84.20
2023-03-02T06:07:46.289Z,84.24
2023-03-02T06:10:14.533Z,84.26
2023-03-02T06:12:42.340Z,84.09
2023-03-02T06:15:10.374Z,83.89
2023-03-02T06:17:38.283Z,83.96
2023-03-02T06:20:10.941Z,83.95
2023-03-02T06:22:41.286Z,83.97
2023-03-02T06:25:10.500Z,83.95
2023-03-02T06:27:39.198Z,83.98
2023-03-02T06:30:07.696Z,84.08
2023-03-02T06:32:35.586Z,84.05
2023-03-02T06:35:04.813Z,84.03
2023-03-02T06:37:32.674Z,84.13
2023-03-02T06:40:00.459Z,84.02
2023-03-02T06:42:28.221Z,83.85
2023-03-02T06:44:58.544Z,84.20
2023-03-02T06:47:26.287Z,84.30
2023-03-02T06:49:54.072Z,84.48
2023-03-02T06:52:21.848Z,84.33
2023-03-02T06:54:49.641Z,84.35
2023-03-02T06:57:17.349Z,84.20
2023-03-02T06:59:49.642Z,83.84
2023-03-02T07:02:17.352Z,83.80
2023-03-02T07:04:45.117Z,83.96
2023-03-02T07:07:12.819Z,84.09
2023-03-02T07:09:40.585Z,84.12
2023-03-02T07:12:17.366Z,83.83
2023-03-02T07:14:46.088Z,83.69
2023-03-02T07:17:13.887Z,83.72
2023-03-02T07:19:41.614Z,83.88
2023-03-02T07:22:09.331Z,83.99
2023-03-02T07:24:37.178Z,83.74
2023-03-02T07:27:04.968Z,83.62
2023-03-02T07:29:32.769Z,83.10
2023-03-02T07:32:00.634Z,82.99
2023-03-02T07:34:28.519Z,83.36
2023-03-02T07:36:56.314Z,82.93
2023-03-02T07:39:24.103Z,82.76
2023-03-02T07:41:52.016Z,82.89
2023-03-02T07:44:21.433Z,82.94
2023-03-02T07:46:49.415Z,83.07
2023-03-02T07:49:17.391Z,83.14
2023-03-02T07:51:45.123Z,82.76
2023-03-02T07:54:12.911Z,82.82
2023-03-02T07:56:40.856Z,82.96
2023-03-02T07:59:08.747Z,82.32
2023-03-02T08:01:36.526Z,82.67
2023-03-02T08:04:04.430Z,82.57
2023-03-02T08:06:32.172Z,82.46
2023-03-02T08:09:01.725Z,82.42
2023-03-02T08:11:29.565Z,82.53
2023-03-02T08:13:59.807Z,82.21
2023-03-02T08:16:27.854Z,82.43
2023-03-02T08:18:57.975Z,82.56
2023-03-02T08:21:38.393Z,82.17
2023-03-02T08:24:08.038Z,82.24
2023-03-02T08:26:42.904Z,82.38
2023-03-02T08:29:19.027Z,82.02
2023-03-02T08:34:37.785Z,81.73
2023-03-02T08:37:05.702Z,81.95
2023-03-02T08:39:33.582Z,82.23
2023-03-02T08:42:01.455Z,82.31
2023-03-02T08:44:29.242Z,82.24
2023-03-02T08:46:58.439Z,81.93
2023-03-02T08:49:31.855Z,81.71
2023-03-02T08:52:05.617Z,81.39
2023-03-02T08:55:03.639Z,81.40
2023-03-02T08:57:43.799Z,81.40
2023-03-02T09:00:26.540Z,80.98
2023-03-02T09:02:57.132Z,81.24
2023-03-02T09:05:27.679Z,81.17
2023-03-02T09:07:58.665Z,81.24
2023-03-02T09:10:29.343Z,81.21
2023-03-02T09:12:57.365Z,81.02
2023-03-02T09:15:25.202Z,81.02
2023-03-02T09:17:52.978Z,80.98
2023-03-02T09:20:21.800Z,80.98
2023-03-02T09:22:50.822Z,80.79
2023-03-02T09:25:18.935Z,80.79
2023-03-02T09:27:47.117Z,80.47
2023-03-02T09:30:15.540Z,80.63
2023-03-02T09:32:43.567Z,80.28
2023-03-02T09:35:11.549Z,80.20
2023-03-02T09:37:39.473Z,80.20
2023-03-02T09:40:16.236Z,80.48
2023-03-02T09:42:46.765Z,80.38
2023-03-02T09:45:16.195Z,80.33
2023-03-02T09:48:03.341Z,80.30
2023-03-02T09:50:37.756Z,80.30
2023-03-02T09:53:24.206Z,80.29
2023-03-02T09:55:59.613Z,80.34
2023-03-02T09:58:39.204Z,80.21
2023-03-02T10:01:17.339Z,80.02
2023-03-02T10:03:52.700Z,80.11
2023-03-02T10:06:24.001Z,80.20
2023-03-02T10:08:53.589Z,80.51
2023-03-02T10:11:31.915Z,80.06
2023-03-02T10:14:16.018Z,79.03
2023-03-02T10:16:48.242Z,79.06
2023-03-02T10:19:32.345Z,79.19
2023-03-02T10:22:14.199Z,79.34
2023-03-02T10:24:58.960Z,79.24
2023-03-02T10:27:31.321Z,78.84
2023-03-02T10:30:02.962Z,78.70
2023-03-02T10:32:33.145Z,79.25
2023-03-02T10:35:02.395Z,79.42
2023-03-02T10:37:30.941Z,79.31
2023-03-02T10:39:59.581Z,78.69
2023-03-02T10:42:29.830Z,78.70
2023-03-02T10:45:03.129Z,78.67
2023-03-02T10:47:30.953Z,78.54
2023-03-02T10:49:58.724Z,78.70
2023-03-02T10:52:27.909Z,78.27
2023-03-02T10:55:02.491Z,78.30
2023-03-02T10:57:37.328Z,78.32
2023-03-02T11:00:24.442Z,78.59
2023-03-02T11:02:52.288Z,78.68
2023-03-02T11:05:26.176Z,78.56
2023-03-02T11:07:54.023Z,78.38
2023-03-02T11:10:23.542Z,78.32
2023-03-02T11:12:52.212Z,78.16
2023-03-02T11:15:20.405Z,78.52
2023-03-02T11:18:04.647Z,78.78
2023-03-02T11:20:38.384Z,78.56
2023-03-02T11:23:06.160Z,78.48
2023-03-02T11:25:39.165Z,78.53
2023-03-02T11:28:19.695Z,78.33
2023-03-02T11:30:51.360Z,78.43
2023-03-02T11:33:35.220Z,77.17
2023-03-02T11:36:07.479Z,77.06
2023-03-02T11:38:46.957Z,77.10
2023-03-02T11:41:27.633Z,77.46
2023-03-02T11:43:58.669Z,77.83
2023-03-02T11:46:30.613Z,77.67
2023-03-02T11:49:01.162Z,76.72
2023-03-02T11:51:30.524Z,77.28
2023-03-02T11:54:00.644Z,77.60
2023-03-02T11:56:31.370Z,77.36
2023-03-02T11:59:00.924Z,77.53
2023-03-02T12:01:29.541Z,76.78
2023-03-02T12:04:14.514Z,76.62
2023-03-02T12:06:45.177Z,76.78
2023-03-02T12:09:30.851Z,76.41
2023-03-02T12:12:14.492Z,76.07
2023-03-02T12:14:43.214Z,76.16
2023-03-02T12:17:26.948Z,76.32
2023-03-02T12:20:10.714Z,76.47
2023-03-02T12:22:40.063Z,76.19
2023-03-02T12:25:23.756Z,75.50
2023-03-02T12:27:53.015Z,76.05
2023-03-02T12:30:24.675Z,76.12
2023-03-02T12:33:02.003Z,76.22
2023-03-02T12:35:34.350Z,75.15
2023-03-02T12:38:07.023Z,74.18
2023-03-02T12:40:50.837Z,73.70
2023-03-02T12:43:34.516Z,72.98
2023-03-02T12:46:18.408Z,72.56
2023-03-02T12:49:03.353Z,72.92
2023-03-02T12:51:49.145Z,72.41
2023-03-02T12:54:18.608Z,72.27
2023-03-02T12:56:46.839Z,71.91
2023-03-02T12:59:29.889Z,72.99
2023-03-02T13:02:13.705Z,73.38
2023-03-02T13:04:41.824Z,73.35
2023-03-02T13:07:17.937Z,73.52
2023-03-02T13:09:56.308Z,72.57
2023-03-02T13:12:26.876Z,72.15
2023-03-02T13:14:56.723Z,70.79
2023-03-02T13:17:32.505Z,70.44
2023-03-02T13:20:01.490Z,69.22
2023-03-02T13:22:29.966Z,68.39
2023-03-02T13:25:00.392Z,69.46
2023-03-02T13:27:28.891Z,67.58
2023-03-02T13:30:07.915Z,67.05
2023-03-02T13:32:38.731Z,66.18
2023-03-02T13:35:15.611Z,66.71
2023-03-02T13:37:44.115Z,67.73
2023-03-02T13:40:32.774Z,65.87
2023-03-02T13:43:00.692Z,63.90
2023-03-02T13:45:29.895Z,66.20
2023-03-02T13:47:58.836Z,67.25
2023-03-02T13:50:28.365Z,65.50
2023-03-02T13:52:57.485Z,63.19
2023-03-02T13:55:25.680Z,64.10
2023-03-02T13:57:54.302Z,63.85
2023-03-02T14:00:26.468Z,62.02
2023-03-02T14:02:54.474Z,61.61
2023-03-02T14:05:25.277Z,59.10
2023-03-02T14:07:53.227Z,62.05
2023-03-02T14:10:20.968Z,60.96
2023-03-02T14:13:05.281Z,57.74
2023-03-02T14:15:34.239Z,60.57
2023-03-02T14:18:13.957Z,60.63
2023-03-02T14:20:43.220Z,60.10
2023-03-02T14:23:11.826Z,56.97
2023-03-02T14:25:39.687Z,52.25
2023-03-02T14:28:10.988Z,57.12
2023-03-02T14:30:39.980Z,55.57
2023-03-02T14:33:15.761Z,51.57
2023-03-02T14:35:44.030Z,54.03
2023-03-02T14:38:12.208Z,55.21
2023-03-02T14:40:39.964Z,52.64
2023-03-02T14:43:08.833Z,56.08
2023-03-02T14:45:36.674Z,56.86
2023-03-02T14:48:04.437Z,56.05
2023-03-02T14:50:36.979Z,56.94
2023-03-02T14:53:06.362Z,56.01
2023-03-02T14:55:34.119Z,56.27
2023-03-02T14:58:10.528Z,55.19
2023-03-02T15:00:38.326Z,53.07
2023-03-02T15:03:06.080Z,53.84
2023-03-02T15:05:33.939Z,54.40
2023-03-02T15:08:01.766Z,52.06
2023-03-02T15:10:29.541Z,53.24
2023-03-02T15:12:57.421Z,51.33
2023-03-02T15:15:26.483Z,48.84
2023-03-02T15:17:54.297Z,52.13
2023-03-02T15:20:22.330Z,51.23
2023-03-02T15:22:50.167Z,51.15
2023-03-02T15:25:17.791Z,52.08
2023-03-02T15:27:45.542Z,52.65
2023-03-02T15:30:13.544Z,53.86
2023-03-02T15:32:41.278Z,53.72
2023-03-02T15:35:09.241Z,54.51
2023-03-02T15:37:36.944Z,54.93
2023-03-02T15:40:05.381Z,55.51
2023-03-02T15:42:33.242Z,55.94
2023-03-02T15:45:01.089Z,56.21
2023-03-02T15:47:28.874Z,56.50
2023-03-02T15:49:56.642Z,56.86
2023-03-02T15:52:24.438Z,57.23
2023-03-02T15:54:52.133Z,57.54
2023-03-02T15:57:19.855Z,57.66
2023-03-02T15:59:47.708Z,57.84
2023-03-02T16:02:15.464Z,58.18
2023-03-02T16:04:43.285Z,58.31
2023-03-02T16:07:10.992Z,58.58
2023-03-02T16:09:38.814Z,58.80
2023-03-02T16:12:06.616Z,58.90
2023-03-02T16:14:34.391Z,59.09
2023-03-02T16:17:02.656Z,59.41
2023-03-02T16:19:30.433Z,59.70
2023-03-02T16:21:58.243Z,60.07
2023-03-02T16:24:26.014Z,60.20
2023-03-02T16:26:53.796Z,60.43
2023-03-02T16:29:22.406Z,60.55
2023-03-02T16:31:50.294Z,60.59
2023-03-02T16:34:18.258Z,60.89
2023-03-02T16:36:46.121Z,60.92
2023-03-02T16:39:14.557Z,60.89
2023-03-02T16:41:43.144Z,60.84
2023-03-02T16:44:11.864Z,61.03
2023-03-02T16:46:40.148Z,61.28
2023-03-02T16:49:08.118Z,61.43
2023-03-02T16:51:36.437Z,61.70
2023-03-02T16:54:04.626Z,61.80
2023-03-02T16:56:32.424Z,61.84
2023-03-02T16:59:00.452Z,62.10
2023-03-02T17:01:29.166Z,62.06
2023-03-02T17:03:57.287Z,62.80
2023-03-02T17:06:25.559Z,63.69
2023-03-02T17:08:53.574Z,63.83
2023-03-02T17:11:21.343Z,63.81
2023-03-02T17:13:49.146Z,65.41
2023-03-02T17:16:17.004Z,64.61
2023-03-02T17:18:47.754Z,64.14
2023-03-02T17:21:17.167Z,64.14
2023-03-02T17:23:47.995Z,64.96
2023-03-02T17:26:17.184Z,65.16
2023-03-02T17:28:45.099Z,65.35
2023-03-02T17:31:12.949Z,65.36
2023-03-02T17:33:40.760Z,65.43
2023-03-02T17:36:11.821Z,64.74
2023-03-02T17:38:39.832Z,64.57
2023-03-02T17:41:12.967Z,64.50
2023-03-02T17:43:41.645Z,64.66
2023-03-02T17:46:14.240Z,64.74
2023-03-02T17:48:42.776Z,64.73
2023-03-02T17:51:11.795Z,64.82
2023-03-02T17:53:39.687Z,64.98
2023-03-02T17:56:07.869Z,64.99
2023-03-02T17:58:44.675Z,65.11
2023-03-02T18:01:15.514Z,65.17
2023-03-02T18:03:45.126Z,65.23
2023-03-02T18:06:13.340Z,65.30
2023-03-02T18:08:41.182Z,65.35
2023-03-02T18:11:08.975Z,65.70
2023-03-02T18:13:36.790Z,65.56
2023-03-02T18:16:04.818Z,65.65
2023-03-02T18:18:32.877Z,65.75
2023-03-02T18:21:00.766Z,65.87
2023-03-02T18:23:29.179Z,65.98
2023-03-02T18:25:56.937Z,65.81
2023-03-02T18:28:24.836Z,65.94
2023-03-02T18:30:52.577Z,66.13
2023-03-02T18:33:20.325Z,66.27
2023-03-02T18:35:48.123Z,66.37
2023-03-02T18:38:15.839Z,66.38
2023-03-02T18:40:43.553Z,66.52
2023-03-02T18:43:11.328Z,66.50
2023-03-02T18:45:39.096Z,66.55
2023-03-02T18:48:06.784Z,66.73
2023-03-02T18:50:34.760Z,66.82
2023-03-02T18:53:02.625Z,66.89
2023-03-02T18:55:30.352Z,67.02
2023-03-02T18:57:58.136Z,67.08
2023-03-02T19:00:28.213Z,67.29
2023-03-02T19:02:56.806Z,67.31
2023-03-02T19:05:27.043Z,67.39
2023-03-02T19:07:55.211Z,67.60
2023-03-02T19:10:23.020Z,67.76
2023-03-02T19:12:50.841Z,67.69
2023-03-02T19:15:19.420Z,67.71
2023-03-02T19:17:48.835Z,67.81
2023-03-02T19:20:16.920Z,67.76
2023-03-02T19:22:44.739Z,68.03
2023-03-02T19:25:12.491Z,68.10
2023-03-02T19:27:40.618Z,68.25
2023-03-02T19:30:09.416Z,68.35
2023-03-02T19:32:37.583Z,68.41
2023-03-02T19:35:05.872Z,68.59
2023-03-02T19:37:33.621Z,68.64
2023-03-02T19:40:01.378Z,68.63
2023-03-02T19:42:30.388Z,68.67
2023-03-02T19:44:58.446Z,68.62
2023-03-02T19:47:26.112Z,68.61
2023-03-02T19:49:53.865Z,68.69
2023-03-02T19:52:21.656Z,68.69
2023-03-02T19:54:50.730Z,68.94
2023-03-02T19:57:18.918Z,69.17
2023-03-02T19:59:46.663Z,69.21
2023-03-02T20:02:15.273Z,69.38
2023-03-02T20:04:45.001Z,69.52
2023-03-02T20:07:13.684Z,69.62
2023-03-02T20:09:42.390Z,69.79
2023-03-02T20:12:11.545Z,69.88
2023-03-02T20:14:42.806Z,69.88
2023-03-02T20:17:10.770Z,69.93
2023-03-02T20:19:38.536Z,69.91
2023-03-02T20:22:06.812Z,69.96
2023-03-02T20:24:34.553Z,69.97
2023-03-02T20:27:03.296Z,70.04
2023-03-02T20:29:31.224Z,70.15
2023-03-02T20:31:59.404Z,70.12
2023-03-02T20:34:27.463Z,70.17
2023-03-02T20:36:55.451Z,70.12
2023-03-02T20:39:25.855Z,70.28
2023-03-02T20:41:53.650Z,70.37
2023-03-02T20:44:22.612Z,70.41
2023-03-02T20:46:53.071Z,70.52
2023-03-02T20:49:22.589Z,70.75
2023-03-02T20:51:52.971Z,70.70
2023-03-02T20:54:22.644Z,70.82
2023-03-02T20:56:50.479Z,70.89
2023-03-02T20:59:18.543Z,71.01
2023-03-02T21:01:46.357Z,71.19
2023-03-02T21:04:14.137Z,71.23
2023-03-02T21:06:41.963Z,71.29
2023-03-02T21:09:10.017Z,71.36
2023-03-02T21:11:38.410Z,71.65
2023-03-02T21:14:06.672Z,71.77
2023-03-02T21:16:36.899Z,71.76
2023-03-02T21:19:06.431Z,71.85
2023-03-02T21:21:41.450Z,72.15
2023-03-02T21:24:16.472Z,72.34
2023-03-02T21:26:45.428Z,72.37
2023-03-02T21:29:16.828Z,72.55
2023-03-02T21:31:44.726Z,72.65
2023-03-02T21:34:13.582Z,72.69
2023-03-02T21:36:42.314Z,72.61
2023-03-02T21:39:11.688Z,73.18
2023-03-02T21:41:40.159Z,73.20
2023-03-02T21:44:07.979Z,73.42
2023-03-02T21:46:36.689Z,73.70
2023-03-02T21:49:04.801Z,73.19
2023-03-02T21:51:32.535Z,73.64
2023-03-02T21:54:00.530Z,73.85
2023-03-02T21:56:28.536Z,73.20
2023-03-02T21:58:57.002Z,73.54
2023-03-02T22:01:26.269Z,73.70
2023-03-02T22:03:54.203Z,73.98
2023-03-02T22:06:29.390Z,74.21
2023-03-02T22:08:57.689Z,74.20
2023-03-02T22:11:27.531Z,73.89
2023-03-02T22:14:00.314Z,74.26
2023-03-02T22:16:37.917Z,74.07
2023-03-02T22:19:17.696Z,74.52
2023-03-02T22:21:47.408Z,74.51
2023-03-02T22:24:15.099Z,74.77
2023-03-02T22:26:44.560Z,74.79
2023-03-02T22:29:32.543Z,75.09
2023-03-02T22:32:13.335Z,75.07
2023-03-02T22:34:42.998Z,75.64
2023-03-02T22:37:12.518Z,75.66
2023-03-02T22:39:42.123Z,75.52
2023-03-02T22:42:26.918Z,75.31
2023-03-02T22:45:12.806Z,75.20
2023-03-02T22:47:41.187Z,75.38
2023-03-02T22:50:24.906Z,75.52
2023-03-02T22:52:53.337Z,75.56
2023-03-02T22:55:40.570Z,75.63
2023-03-02T22:58:25.370Z,75.16
2023-03-02T23:00:53.478Z,74.94
2023-03-02T23:03:27.896Z,75.34
2023-03-02T23:05:55.688Z,75.82
2023-03-02T23:08:29.946Z,75.65
2023-03-02T23:10:58.705Z,76.16
2023-03-02T23:13:36.270Z,75.97
2023-03-02T23:16:13.662Z,76.07
2023-03-02T23:18:43.042Z,75.68
2023-03-02T23:21:15.599Z,75.77
2023-03-02T23:23:43.310Z,75.09
2023-03-02T23:26:11.166Z,75.58
2023-03-02T23:28:39.423Z,75.64
2023-03-02T23:31:07.148Z,75.82
2023-03-02T23:33:34.957Z,76.11
2023-03-02T23:36:02.692Z,76.30
2023-03-02T23:38:30.765Z,76.01
2023-03-02T23:40:58.614Z,76.13
2023-03-02T23:43:26.602Z,76.41
2023-03-02T23:45:54.517Z,76.12
2023-03-02T23:48:22.438Z,76.79
2023-03-02T23:50:50.178Z,77.15
2023-03-02T23:53:18.058Z,76.73
2023-03-02T23:55:47.861Z,76.61
2023-03-02T23:58:16.017Z,77.18
